»·PEaware :: UAL576 KBZN-KPDX

UAL576 :: KBZN-KPDX

FLIGHT INFORMATION

Flight Status: Arrived
Operator:
United Airlines
More flights by this operator :: More flights under this callsign
Pilot: Anonymous 8274 (8274)
Aircraft: BOEING 737-200
(B732)
More flights by this aircraft type
Origin: KBZN Gallatin
United States
Destination: KPDX Portland Intl
United States
More flights between these airports :: More routes between these airports
Route: +HIA5 HIA J16 BTG
File this flight plan on PilotEdge
Remarks:
Altitude:
(Current/Filed)
32,000ft
Speed:
(Current/Filed)
433kts
Departed: 15-Mar-20 03:17 PM
Arrived: 15-Mar-20 04:43 PM
Distance/Time
Traveled:
479nm/1:26
Distance/Time
To Go:
Arrived

Flight Plot

Page will automatically refresh every two minutes.

Flight plan parsing failed; only flown route is shown


Map Options




Map Legend


Flown Route
Filed Route
Departure Airport
Arrival Airport
Navaid (VOR, NDB)
Fix

Horizontal Profiles

Position Reports

Time Latitude Longitude Heading Altitude Ground
Speed
15-Mar-20 14:44 45.778523 -111.160149 224 4462ft 0kts
15-Mar-20 14:46 45.778523 -111.160148 224 4462ft 0kts
15-Mar-20 14:46 45.778523 -111.160148 224 4462ft 0kts
15-Mar-20 14:47 45.778523 -111.160148 224 4462ft 0kts
15-Mar-20 14:48 45.778523 -111.160148 224 4462ft 0kts
15-Mar-20 14:49 45.778523 -111.160148 224 4462ft 0kts
15-Mar-20 14:50 45.778523 -111.160148 224 4462ft 0kts
15-Mar-20 14:52 45.778523 -111.160148 224 4462ft 0kts
15-Mar-20 14:52 45.778523 -111.160148 224 4462ft 0kts
15-Mar-20 14:53 45.778523 -111.160148 224 4462ft 0kts
15-Mar-20 14:54 45.778523 -111.160148 224 4462ft 0kts
15-Mar-20 14:55 45.778523 -111.160148 224 4462ft 0kts
15-Mar-20 14:56 45.778523 -111.160148 224 4462ft 0kts
15-Mar-20 14:57 45.778523 -111.160148 224 4462ft 0kts
15-Mar-20 14:58 45.778523 -111.160148 224 4462ft 0kts
15-Mar-20 14:59 45.778523 -111.160148 224 4462ft 0kts
15-Mar-20 15:00 45.778523 -111.160148 224 4462ft 0kts
15-Mar-20 15:01 45.778523 -111.160148 224 4462ft 0kts
15-Mar-20 15:02 45.778523 -111.160148 224 4462ft 0kts
15-Mar-20 15:03 45.778523 -111.160148 224 4462ft 0kts
15-Mar-20 15:04 45.778683 -111.159590 283 4461ft 2kts
15-Mar-20 15:05 45.778518 -111.159253 322 4461ft 0kts
15-Mar-20 15:06 45.778519 -111.159253 322 4461ft 0kts
15-Mar-20 15:07 45.778519 -111.159253 322 4461ft 0kts
15-Mar-20 15:08 45.778519 -111.159253 322 4461ft 0kts
15-Mar-20 15:09 45.778795 -111.159537 334 4461ft 0kts
15-Mar-20 15:10 45.779583 -111.159176 354 4459ft 11kts
15-Mar-20 15:11 45.782756 -111.163244 316 4452ft 20kts
15-Mar-20 15:12 45.786932 -111.167991 43 4441ft 10kts
15-Mar-20 15:13 45.786965 -111.167943 46 4441ft 0kts
15-Mar-20 15:14 45.787841 -111.166603 66 4438ft 11kts
15-Mar-20 15:15 45.787433 -111.165640 137 4439ft 0kts
15-Mar-20 15:16 45.768085 -111.139751 139 5078ft 151kts
15-Mar-20 15:17 45.730241 -111.163310 252 6375ft 223kts
15-Mar-20 15:18 45.727396 -111.260400 268 9165ft 260kts
15-Mar-20 15:19 45.704647 -111.358513 233 11885ft 284kts
15-Mar-20 15:20 45.658276 -111.461876 240 14043ft 326kts
15-Mar-20 15:21 45.678575 -111.585618 301 15945ft 342kts
15-Mar-20 15:22 45.733206 -111.683896 306 16710ft 350kts
15-Mar-20 15:23 45.767231 -111.811424 281 18854ft 351kts
15-Mar-20 15:24 45.794848 -111.945970 289 21051ft 358kts
15-Mar-20 15:25 45.836826 -112.080187 290 22446ft 377kts
15-Mar-20 15:26 45.872585 -112.222660 283 23933ft 383kts
15-Mar-20 15:27 45.909427 -112.367919 279 25409ft 385kts
15-Mar-20 15:28 45.882585 -112.507965 234 26829ft 365kts
15-Mar-20 15:29 45.858605 -112.646379 266 28226ft 372kts
15-Mar-20 15:30 45.860215 -112.786711 265 29559ft 365kts
15-Mar-20 15:31 45.860356 -112.930665 263 30837ft 357kts
15-Mar-20 15:32 45.858812 -113.072860 263 31850ft 354kts
15-Mar-20 15:33 45.856464 -113.215905 263 32157ft 367kts
15-Mar-20 15:34 45.854010 -113.366306 264 32149ft 387kts
15-Mar-20 15:35 45.852208 -113.523879 264 32149ft 403kts
15-Mar-20 15:36 45.850802 -113.678785 264 32151ft 416kts
15-Mar-20 15:37 45.849141 -113.847314 264 32148ft 427kts
15-Mar-20 15:38 45.846961 -114.019312 264 32143ft 424kts
15-Mar-20 15:39 45.845101 -114.178174 263 32149ft 376kts
15-Mar-20 15:40 45.843121 -114.323069 263 32165ft 361kts
15-Mar-20 15:41 45.839778 -114.467916 262 32165ft 365kts
15-Mar-20 15:42 45.835323 -114.614610 262 32165ft 370kts
15-Mar-20 15:43 45.830637 -114.751603 261 32166ft 374kts
15-Mar-20 15:44 45.825771 -114.901783 262 32165ft 379kts
15-Mar-20 15:45 45.821793 -115.053825 263 32175ft 383kts
15-Mar-20 15:46 45.818746 -115.207355 263 32192ft 387kts
15-Mar-20 15:47 45.816197 -115.362030 263 32192ft 390kts
15-Mar-20 15:48 45.813460 -115.519045 264 32194ft 395kts
15-Mar-20 15:49 45.810161 -115.666820 263 32191ft 400kts
15-Mar-20 15:50 45.808497 -115.828928 264 32188ft 408kts
15-Mar-20 15:51 45.806669 -115.993026 264 32169ft 413kts
15-Mar-20 15:52 45.802777 -116.158707 263 32096ft 419kts
15-Mar-20 15:53 45.796967 -116.326079 262 32094ft 422kts
15-Mar-20 15:54 45.790092 -116.494187 262 32092ft 424kts
15-Mar-20 15:55 45.784071 -116.650036 262 32088ft 426kts
15-Mar-20 15:56 45.778773 -116.818891 263 32091ft 427kts
15-Mar-20 15:57 45.774946 -116.989419 263 32114ft 428kts
15-Mar-20 15:58 45.771532 -117.159824 263 32149ft 425kts
15-Mar-20 15:59 45.767115 -117.328570 263 32144ft 422kts
15-Mar-20 16:00 45.760806 -117.495842 262 32144ft 418kts
15-Mar-20 16:01 45.753715 -117.650730 261 32144ft 413kts
15-Mar-20 16:02 45.746376 -117.814546 262 32145ft 410kts
15-Mar-20 16:03 45.740114 -117.977005 262 32161ft 407kts
15-Mar-20 16:05 45.734530 -118.138841 262 32174ft 404kts
15-Mar-20 16:06 45.727975 -118.299103 262 32173ft 402kts
15-Mar-20 16:07 45.720556 -118.458663 261 32173ft 401kts
15-Mar-20 16:08 45.713195 -118.617374 262 32173ft 400kts
15-Mar-20 16:09 45.706279 -118.768852 261 32173ft 403kts
15-Mar-20 16:10 45.698663 -118.927861 261 32196ft 397kts
15-Mar-20 16:11 45.705303 -119.084868 268 32218ft 397kts
15-Mar-20 16:12 45.705785 -119.241298 266 32218ft 394kts
15-Mar-20 16:13 45.707804 -119.397882 267 32219ft 394kts
15-Mar-20 16:14 45.710311 -119.555123 267 32220ft 397kts
15-Mar-20 16:15 45.713071 -119.706249 267 32221ft 403kts
15-Mar-20 16:16 45.716117 -119.867994 267 32220ft 410kts
15-Mar-20 16:17 45.719051 -120.032712 267 32220ft 416kts
15-Mar-20 16:18 45.721685 -120.199340 267 32228ft 421kts
15-Mar-20 16:19 45.724064 -120.367766 267 32229ft 426kts
15-Mar-20 16:20 45.726032 -120.536819 267 31439ft 419kts
15-Mar-20 16:21 45.727828 -120.691717 266 29531ft 409kts
15-Mar-20 16:22 45.729840 -120.851629 266 27557ft 400kts
15-Mar-20 16:23 45.732119 -121.009572 265 25522ft 394kts
15-Mar-20 16:24 45.734951 -121.165277 265 23561ft 387kts
15-Mar-20 16:24 45.737635 -121.292914 266 21975ft 381kts
15-Mar-20 16:26 45.742062 -121.467929 266 19765ft 374kts
15-Mar-20 16:27 45.746263 -121.616004 266 17836ft 369kts
15-Mar-20 16:27 45.749876 -121.735201 267 16226ft 365kts
15-Mar-20 16:28 45.749858 -121.876142 256 14694ft 344kts
15-Mar-20 16:30 45.729694 -122.030953 255 12759ft 333kts
15-Mar-20 16:30 45.714517 -122.136573 255 11978ft 308kts
15-Mar-20 16:31 45.697784 -122.251375 255 11182ft 284kts
15-Mar-20 16:32 45.681597 -122.360440 255 10144ft 277kts
15-Mar-20 16:33 45.665093 -122.467025 253 9032ft 270kts
15-Mar-20 16:34 45.648282 -122.570986 256 7696ft 264kts
15-Mar-20 16:35 45.663441 -122.667566 297 6367ft 255kts
15-Mar-20 16:36 45.693566 -122.758325 291 5044ft 250kts
15-Mar-20 16:37 45.656681 -122.810852 147 3638ft 220kts
15-Mar-20 16:38 45.641105 -122.735424 103 2248ft 186kts
15-Mar-20 16:39 45.627192 -122.681077 114 1397ft 124kts
15-Mar-20 16:40 45.611187 -122.637671 112 764ft 126kts
15-Mar-20 16:41 45.595665 -122.598174 109 104ft 103kts
15-Mar-20 16:42 45.588580 -122.582247 216 38ft 0kts
15-Mar-20 16:43 45.589565 -122.585432 296 38ft 0kts
15-Mar-20 16:44 45.590349 -122.589557 298 38ft 21kts
15-Mar-20 16:45 45.590425 -122.592246 195 38ft 0kts

Navigation Log

Ident Type
Flight plan parsing failed, navigation log unavailable